.
WxDataArchive / Data Records for 2012-06-19
2012-06-18 June 2012 2012-06-20

Data Records for Tuesday, 19 June 2012

Time	Temp	Chill	HIndex	Humid	Dewpt	 Wind 	HiWind	WindDir	Rain 	Barom 
-----	----	-----	------	-----	-----	------	------	-------	-----	----- 
00:00	81.1	81.1	81.8	50	60.7	0	2	225	0.00	29.871 
00:05	80.9	80.9	81.6	50	60.5	0	2	225	0.00	29.871 
00:10	80.9	80.9	81.6	50	60.5	1	4	90	0.00	29.871 
00:15	80.7	80.7	81.6	51	60.9	0	3	90	0.00	29.878 
00:20	80.5	80.5	81.4	51	60.7	0	2	90	0.00	29.878 
00:25	80.3	80.3	81.3	52	61.0	0	3	292	0.00	29.878 
00:30	80.1	80.1	81.1	52	60.9	1	3	292	0.00	29.885 
00:35	80.1	80.1	81.1	52	60.9	0	2	292	0.00	29.885 
00:40	79.9	79.9	81.0	53	61.2	0	2	292	0.00	29.885 
00:45	79.8	79.8	80.9	53	61.1	0	2	292	0.00	29.889 
00:50	79.6	79.6	80.7	53	60.9	0	1	292	0.00	29.889 
00:55	79.4	79.4	80.6	54	61.3	0	1	292	0.00	29.889 
01:00	79.2	79.2	80.4	54	61.1	0	1	292	0.00	29.894 
01:05	79.0	79.0	80.3	54	60.9	0	4	270	0.00	29.894 
01:10	79.0	79.0	80.3	55	61.4	0	2	270	0.00	29.894 
01:15	79.0	79.0	80.3	55	61.4	0	2	270	0.00	29.892 
01:20	78.8	78.8	80.1	55	61.2	0	1	270	0.00	29.892 
01:25	78.6	78.6	80.0	55	61.1	0	2	270	0.00	29.892 
01:30	78.6	78.6	80.0	56	61.6	0	1	270	0.00	29.888 
01:35	78.5	78.5	79.9	56	61.5	0	3	270	0.00	29.888 
01:40	78.3	78.3	79.8	56	61.3	0	2	292	0.00	29.888 
01:45	78.3	78.3	79.8	56	61.3	0	1	292	0.00	29.887 
01:50	78.1	78.1	79.6	57	61.6	0	2	292	0.00	29.887 
01:55	78.1	78.1	79.6	57	61.6	0	5	225	0.00	29.887 
02:00	77.9	77.9	79.5	57	61.4	1	3	225	0.00	29.886 
02:05	77.9	77.9	79.5	57	61.4	0	2	225	0.00	29.886 
02:10	77.9	77.9	79.5	57	61.4	0	2	225	0.00	29.886 
02:15	77.7	77.7	79.3	57	61.2	0	2	225	0.00	29.884 
02:20	77.7	77.7	79.3	57	61.2	0	2	225	0.00	29.884 
02:25	77.7	77.7	79.3	57	61.2	1	4	248	0.00	29.884 
02:30	77.7	77.7	79.3	57	61.2	0	3	248	0.00	29.887 
02:35	77.7	77.7	79.3	57	61.2	1	3	225	0.00	29.887 
02:40	77.6	77.6	79.2	57	61.1	0	2	225	0.00	29.887 
02:45	77.6	77.6	79.2	57	61.1	0	1	225	0.00	29.889 
02:50	77.6	77.6	79.2	58	61.6	0	2	225	0.00	29.889 
02:55	77.4	77.4	79.1	58	61.4	0	1	225	0.00	29.889 
03:00	77.4	77.4	79.1	58	61.4	0	3	225	0.00	29.896 
03:05	77.2	77.2	78.9	58	61.3	0	1	225	0.00	29.896 
03:10	77.2	77.2	78.9	58	61.3	0	2	225	0.00	29.896 
03:15	77.2	77.2	78.9	58	61.3	0	2	225	0.00	29.894 
03:20	77.0	77.0	78.8	58	61.1	0	3	225	0.00	29.894 
03:25	77.0	77.0	78.8	58	61.1	0	3	225	0.00	29.894 
03:30	77.0	77.0	78.8	58	61.1	1	4	225	0.00	29.893 
03:35	77.2	77.2	78.9	58	61.3	1	3	225	0.00	29.893 
03:40	77.2	77.2	78.9	57	60.8	1	2	225	0.00	29.893 
03:45	77.0	77.0	78.7	57	60.6	1	3	225	0.00	29.896 
03:50	77.0	77.0	78.8	58	61.1	0	3	225	0.00	29.896 
03:55	76.8	76.8	78.6	58	60.9	1	3	225	0.00	29.896 
04:00	76.8	76.8	78.6	58	60.9	1	2	225	0.00	29.898 
04:05	76.7	76.7	78.5	58	60.8	0	2	225	0.00	29.898 
04:10	76.7	76.7	78.5	58	60.8	1	3	225	0.00	29.898 
04:15	76.7	76.7	78.5	58	60.8	1	4	225	0.00	29.901 
04:20	76.5	76.5	78.4	58	60.6	1	2	225	0.00	29.901 
04:25	76.5	76.5	78.4	58	60.6	0	2	225	0.00	29.901 
04:30	76.3	76.3	78.2	58	60.4	0	1	225	0.00	29.902 
04:35	76.1	76.1	78.1	59	60.7	1	3	225	0.00	29.902 
04:40	76.0	76.0	78.0	59	60.6	1	2	225	0.00	29.902 
04:45	75.8	75.8	77.9	59	60.4	0	1	225	0.00	29.900 
04:50	75.8	75.8	77.9	60	60.9	0	2	225	0.00	29.900 
04:55	75.6	75.6	77.7	60	60.7	0	2	225	0.00	29.900 
05:00	75.4	75.4	77.6	60	60.5	0	2	225	0.00	29.902 
05:05	75.3	75.3	77.5	61	60.9	0	2	225	0.00	29.902 
05:10	75.3	75.3	77.5	61	60.9	0	3	225	0.00	29.902 
05:15	75.1	75.1	77.4	61	60.7	1	3	225	0.00	29.903 
05:20	75.1	75.1	77.4	61	60.7	1	4	248	0.00	29.903 
05:25	75.1	75.1	77.4	61	60.7	1	3	248	0.00	29.903 
05:30	75.1	75.1	77.4	61	60.7	1	4	248	0.00	29.902 
05:35	75.1	75.1	77.4	61	60.7	1	3	248	0.00	29.902 
05:40	75.1	75.1	77.4	61	60.7	0	3	248	0.00	29.902 
05:45	75.1	75.1	77.4	61	60.7	1	3	248	0.00	29.905 
05:50	75.1	75.1	77.4	61	60.7	0	2	248	0.00	29.905 
05:55	74.9	74.9	74.9	62	61.0	0	2	248	0.00	29.905 
06:00	74.7	74.7	74.7	62	60.8	0	3	248	0.00	29.918 
06:05	74.6	74.6	74.6	62	60.7	0	2	248	0.00	29.918 
06:10	74.4	74.4	74.4	63	61.0	0	2	248	0.00	29.918 
06:15	74.2	74.2	74.2	63	60.8	0	3	248	0.00	29.919 
06:20	74.0	74.0	74.0	63	60.6	0	2	248	0.00	29.919 
06:25	74.0	74.0	74.0	64	61.0	0	2	248	0.00	29.919 
06:30	73.9	73.9	73.9	64	60.9	0	1	248	0.00	29.920 
06:35	73.7	73.7	73.7	64	60.7	0	1	248	0.00	29.920 
06:40	73.7	73.7	73.7	65	61.2	0	2	248	0.00	29.920 
06:45	73.9	73.9	73.9	65	61.4	1	2	248	0.00	29.920 
06:50	73.9	73.9	73.9	65	61.4	0	2	248	0.00	29.920 
06:55	73.9	73.9	73.9	65	61.4	1	3	248	0.00	29.920 
07:00	73.9	73.9	73.9	65	61.4	1	3	248	0.00	29.921 
07:05	74.0	74.0	74.0	65	61.5	1	2	248	0.00	29.921 
07:10	74.0	74.0	74.0	64	61.0	1	3	248	0.00	29.921 
07:15	74.2	74.2	74.2	64	61.2	0	2	248	0.00	29.921 
07:20	74.2	74.2	74.2	64	61.2	0	2	248	0.00	29.921 
07:25	74.4	74.4	74.4	64	61.4	1	3	248	0.00	29.921 
07:30	74.4	74.4	74.4	64	61.4	1	4	248	0.00	29.931 
07:35	74.6	74.6	74.6	64	61.6	1	3	248	0.00	29.931 
07:40	74.6	74.6	74.6	64	61.6	1	3	248	0.00	29.931 
07:45	74.6	74.6	74.6	64	61.6	1	4	248	0.00	29.939 
07:50	74.9	74.9	74.9	64	61.9	1	5	248	0.00	29.939 
07:55	75.4	75.4	77.5	63	61.9	1	3	248	0.00	29.939 
08:00	75.8	75.8	77.8	62	61.8	1	3	248	0.00	29.947 
08:05	76.3	76.3	78.2	62	62.3	1	4	248	0.00	29.947 
08:10	76.7	76.7	78.5	61	62.2	1	4	270	0.00	29.947 
08:15	77.0	77.0	78.8	60	62.0	1	3	270	0.00	29.952 
08:20	77.4	77.4	79.1	60	62.4	2	5	292	0.00	29.952 
08:25	77.7	77.7	79.4	59	62.2	1	4	270	0.00	29.952 
08:30	78.3	78.3	79.9	58	62.3	1	4	270	0.00	29.952 
08:35	78.8	78.8	80.3	58	62.8	1	4	292	0.00	29.952 
08:40	79.0	79.0	80.5	57	62.4	2	4	270	0.00	29.952 
08:45	79.2	79.2	80.7	57	62.6	2	5	225	0.00	29.958 
08:50	79.6	79.6	81.0	56	62.5	2	5	292	0.00	29.958 
08:55	79.8	79.8	81.1	55	62.2	3	6	248	0.00	29.958 
09:00	80.1	80.1	81.4	55	62.4	2	5	248	0.00	29.967 
09:05	80.3	80.3	81.6	55	62.6	2	6	270	0.00	29.967 
09:10	80.9	80.9	82.1	54	62.7	2	4	248	0.00	29.967 
09:15	81.1	81.1	82.3	54	62.9	2	6	270	0.00	29.971 
09:20	81.2	81.2	82.3	53	62.4	3	7	270	0.00	29.971 
09:25	81.6	81.6	82.9	54	63.3	2	5	292	0.00	29.971 
09:30	82.0	82.0	83.1	52	62.6	2	5	270	0.00	29.969 
09:35	82.0	82.0	83.2	53	63.2	3	7	248	0.00	29.969 
09:40	82.2	82.2	83.3	52	62.8	3	5	248	0.00	29.969 
09:45	82.4	82.4	83.7	53	63.5	3	7	270	0.00	29.969 
09:50	83.0	83.0	84.1	51	63.0	2	6	270	0.00	29.969 
09:55	83.4	83.4	84.6	51	63.3	2	5	270	0.00	29.969 
10:00	83.2	83.2	84.3	51	63.2	3	9	270	0.00	29.978 
10:05	83.2	83.2	84.3	51	63.2	4	8	270	0.00	29.978 
10:10	83.4	83.4	84.6	51	63.3	3	6	270	0.00	29.978 
10:15	83.8	83.8	84.9	50	63.1	3	6	248	0.00	29.980 
10:20	84.1	84.1	85.3	50	63.4	2	5	248	0.00	29.980 
10:25	84.1	84.1	85.3	50	63.4	3	7	270	0.00	29.980 
10:30	84.3	84.3	85.5	50	63.6	3	5	270	0.00	29.980 
10:35	84.9	84.9	86.3	50	64.2	2	6	248	0.00	29.980 
10:40	85.3	85.3	86.6	49	63.9	3	7	248	0.00	29.980 
10:45	85.7	85.7	87.4	50	64.9	2	6	270	0.00	29.979 
10:50	86.3	86.3	87.8	48	64.3	2	6	270	0.00	29.979 
10:55	86.5	86.5	87.8	47	63.8	3	6	270	0.00	29.979 
11:00	87.0	87.0	88.5	47	64.3	2	3	270	0.00	29.987 
11:05	87.2	87.2	88.5	46	63.9	3	5	270	0.00	29.987 
11:10	87.4	87.4	88.8	46	64.0	3	6	270	0.00	29.987 
11:15	87.6	87.6	89.1	46	64.2	2	5	270	0.00	29.994 
11:20	88.0	88.0	89.4	45	64.0	2	5	270	0.00	29.994 
11:25	88.6	88.6	90.3	45	64.5	3	6	270	0.00	29.994 
11:30	88.6	88.6	89.9	44	63.9	3	9	270	0.00	29.994 
11:35	88.4	88.4	90.0	45	64.3	3	6	248	0.00	29.994 
11:40	88.4	88.4	90.0	45	64.3	3	6	270	0.00	29.994 
11:45	88.6	88.6	90.3	45	64.5	3	7	270	0.00	29.991 
11:50	88.6	88.6	90.3	45	64.5	4	7	270	0.00	29.991 
11:55	88.8	88.8	90.2	44	64.0	3	6	270	0.00	29.991 
12:00	89.3	89.3	91.0	44	64.5	2	6	270	0.00	29.993 
12:05	89.7	89.7	91.6	44	64.8	2	4	248	0.00	29.993 
12:10	89.9	89.9	91.6	43	64.4	4	9	270	0.00	29.993 
12:15	89.9	89.9	91.6	43	64.4	3	6	270	0.00	29.995 
12:20	90.5	90.5	92.5	43	64.9	2	3	270	0.00	29.995 
12:25	90.7	90.7	92.5	42	64.4	3	5	248	0.00	29.995 
12:30	91.0	91.0	92.6	41	64.0	2	9	248	0.00	29.995 
12:35	90.7	90.7	92.5	42	64.4	2	5	292	0.00	29.995 
12:40	91.4	91.4	93.6	42	65.0	1	4	270	0.00	29.995 
12:45	91.6	91.6	93.9	42	65.2	2	5	225	0.00	29.990 
12:50	91.8	91.8	93.9	41	64.7	2	4	225	0.00	29.990 
12:55	92.1	92.1	93.9	40	64.3	2	4	225	0.00	29.990 
13:00	92.3	92.3	93.8	39	63.7	2	6	270	0.00	29.993 
13:05	92.7	92.7	95.4	41	65.5	2	5	248	0.00	29.993 
13:10	92.7	92.7	94.9	40	64.8	2	4	248	0.00	29.993 
13:15	92.7	92.7	95.4	41	65.5	2	5	270	0.00	29.990 
13:20	92.7	92.7	94.5	39	64.1	2	5	270	0.00	29.990 
13:25	93.4	93.4	95.2	38	63.9	2	4	248	0.00	29.990 
13:30	93.8	93.8	95.4	37	63.5	1	3	248	0.00	29.986 
13:35	93.8	93.8	95.4	37	63.5	2	4	270	0.00	29.986 
13:40	93.8	93.8	95.0	36	62.7	2	4	248	0.00	29.986 
13:45	93.8	93.8	95.0	36	62.7	2	4	270	0.00	29.986 
13:50	93.6	93.6	94.7	36	62.6	3	5	248	0.00	29.986 
13:55	93.6	93.6	95.5	38	64.1	2	4	270	0.00	29.986 
14:00	93.8	93.8	95.9	38	64.3	1	5	270	0.00	29.979 
14:05	93.8	93.8	95.9	38	64.3	2	4	248	0.00	29.979 
14:10	94.5	94.5	96.1	36	63.4	2	4	270	0.00	29.979 
14:15	94.7	94.7	96.0	35	62.7	2	5	292	0.00	29.978 
14:20	93.8	93.8	95.0	36	62.7	3	6	248	0.00	29.978 
14:25	93.6	93.6	94.7	36	62.6	2	4	270	0.00	29.978 
14:30	93.6	93.6	94.7	36	62.6	2	9	270	0.00	29.977 
14:35	94.0	94.0	95.3	36	62.9	2	5	270	0.00	29.977 
14:40	94.3	94.3	94.9	34	61.6	2	6	248	0.00	29.977 
14:45	94.7	94.7	95.6	34	61.9	1	4	112	0.00	29.974 
14:50	94.9	94.9	95.9	34	62.1	2	6	112	0.00	29.974 
14:55	94.7	94.7	95.6	34	61.9	3	6	270	0.00	29.974 
15:00	94.7	94.7	95.6	34	61.9	2	6	270	0.00	29.974 
15:05	94.9	94.9	95.9	34	62.1	2	6	248	0.00	29.974 
15:10	94.9	94.9	95.5	33	61.2	1	4	292	0.00	29.974 
15:15	95.1	95.1	94.9	31	59.7	2	5	248	0.00	29.976 
15:20	95.6	95.6	96.1	32	61.0	2	6	270	0.00	29.976 
15:25	95.4	95.4	95.8	32	60.8	2	5	270	0.00	29.976 
15:30	94.9	94.9	95.0	32	60.4	3	6	270	0.00	29.968 
15:35	95.1	95.1	95.3	32	60.5	2	5	270	0.00	29.968 
15:40	95.4	95.4	95.4	31	59.9	2	6	270	0.00	29.968 
15:45	95.4	95.4	93.9	27	56.1	3	6	270	0.00	29.967 
15:50	94.9	94.9	95.0	32	60.4	2	7	270	0.00	29.967 
15:55	94.9	94.9	94.6	31	59.5	2	6	225	0.00	29.967 
16:00	94.9	94.9	94.3	30	58.6	2	7	270	0.00	29.965 
16:05	94.9	94.9	94.6	31	59.5	2	5	248	0.00	29.965 
16:10	95.1	95.1	95.3	32	60.5	2	5	248	0.00	29.965 
16:15	95.4	95.4	96.2	33	61.7	1	4	292	0.00	29.963 
16:20	95.1	95.1	94.6	30	58.7	2	6	225	0.00	29.963 
16:25	94.7	94.7	94.4	31	59.3	3	7	248	0.00	29.963 
16:30	94.5	94.5	94.8	33	60.9	2	5	270	0.00	29.965 
16:35	94.7	94.7	94.0	30	58.4	2	5	248	0.00	29.965 
16:40	94.9	94.9	95.0	32	60.4	2	5	270	0.00	29.965 
16:45	94.7	94.7	94.7	32	60.2	2	9	248	0.00	29.962 
16:50	94.9	94.9	95.0	32	60.4	1	4	248	0.00	29.962 
16:55	95.6	95.6	95.7	31	60.1	1	6	248	0.00	29.962 
17:00	95.4	95.4	95.4	31	59.9	1	4	270	0.00	29.961 
17:05	95.1	95.1	94.9	31	59.7	2	4	292	0.00	29.961 
17:10	94.0	94.0	93.7	32	59.6	1	3	270	0.00	29.961 
17:15	93.2	93.2	92.9	33	59.8	1	4	270	0.00	29.963 
17:20	92.5	92.5	92.6	35	60.8	1	5	248	0.00	29.963 
17:25	92.5	92.5	92.6	35	60.8	1	5	248	0.00	29.963 
17:30	93.4	93.4	93.2	33	59.9	1	4	292	0.00	29.962 
17:35	94.0	94.0	94.1	33	60.5	1	4	270	0.00	29.962 
17:40	94.7	94.7	94.7	32	60.2	2	6	270	0.00	29.962 
17:45	94.3	94.3	93.8	31	59.0	2	5	248	0.00	29.952 
17:50	93.2	93.2	92.9	33	59.8	2	4	248	0.00	29.952 
17:55	92.5	92.5	92.3	34	60.0	2	4	248	0.00	29.952 
18:00	92.7	92.7	91.9	32	58.5	2	4	248	0.00	29.961 
18:05	92.7	92.7	92.2	33	59.3	1	5	248	0.00	29.961 
18:10	92.9	92.9	92.8	34	60.3	1	2	248	0.00	29.961 
18:15	93.4	93.4	92.5	31	58.2	1	4	248	0.00	29.959 
18:20	93.2	93.2	92.2	31	58.0	2	6	248	0.00	29.959 
18:25	92.5	92.5	91.6	32	58.3	1	3	248	0.00	29.959 
18:30	91.8	91.8	91.0	33	58.5	1	5	315	0.00	29.962 
18:35	91.8	91.8	90.7	32	57.7	2	6	270	0.00	29.962 
18:40	92.1	92.1	91.4	33	58.8	1	3	292	0.00	29.962 
18:45	92.3	92.3	91.3	32	58.1	1	4	292	0.00	29.962 
18:50	92.3	92.3	91.3	32	58.1	1	5	292	0.00	29.962 
18:55	92.3	92.3	91.6	33	59.0	2	5	270	0.00	29.962 
19:00	92.3	92.3	91.6	33	59.0	1	4	292	0.00	29.962 
19:05	92.1	92.1	91.4	33	58.8	1	4	248	0.00	29.962 
19:10	91.6	91.6	91.0	34	59.2	2	4	270	0.00	29.962 
19:15	91.2	91.2	90.5	34	58.9	1	3	270	0.00	29.966 
19:20	91.0	91.0	90.2	34	58.7	1	5	90	0.00	29.966 
19:25	90.7	90.7	90.1	35	59.2	1	3	45	0.00	29.966 
19:30	90.7	90.7	89.8	34	58.4	1	3	22	0.00	29.959 
19:35	90.5	90.5	89.8	35	59.1	1	4	225	0.00	29.959 
19:40	90.5	90.5	89.8	35	59.1	1	3	90	0.00	29.959 
19:45	90.3	90.3	89.0	33	57.2	1	4	292	0.00	29.966 
19:50	90.3	90.3	89.0	33	57.2	2	4	292	0.00	29.966 
19:55	90.3	90.3	89.0	33	57.2	1	3	292	0.00	29.966 
20:00	90.1	90.1	89.0	34	57.9	1	3	270	0.00	29.967 
20:05	89.9	89.9	88.8	34	57.7	1	3	270	0.00	29.967 
20:10	89.7	89.7	88.5	34	57.6	1	3	270	0.00	29.967 
20:15	89.7	89.7	88.5	34	57.6	1	3	45	0.00	29.964 
20:20	89.5	89.5	88.3	34	57.4	1	3	0	0.00	29.964 
20:25	89.3	89.3	88.3	35	58.0	1	4	90	0.00	29.964 
20:30	89.0	89.0	87.9	35	57.7	1	4	248	0.00	29.968 
20:35	88.6	88.6	87.6	36	58.2	1	2	292	0.00	29.968 
20:40	88.2	88.2	87.2	36	57.8	0	3	292	0.00	29.968 
20:45	88.0	88.0	87.1	37	58.4	0	3	292	0.00	29.971 
20:50	87.8	87.8	86.9	37	58.2	1	6	292	0.00	29.971 
20:55	87.6	87.6	86.9	38	58.8	0	2	292	0.00	29.971 
21:00	87.4	87.4	86.7	38	58.6	0	1	292	0.00	29.978 
21:05	87.2	87.2	86.4	38	58.5	0	2	292	0.00	29.978 
21:10	86.7	86.7	86.0	39	58.7	0	2	292	0.00	29.978 
21:15	86.5	86.5	85.8	39	58.6	1	2	292	0.00	29.977 
21:20	86.3	86.3	85.6	39	58.4	0	2	292	0.00	29.977 
21:25	86.1	86.1	85.4	39	58.2	0	4	248	0.00	29.977 
21:30	85.9	85.9	85.3	40	58.7	0	1	248	0.00	29.980 
21:35	85.5	85.5	85.1	41	59.1	0	1	248	0.00	29.980 
21:40	85.3	85.3	84.8	41	58.9	0	1	248	0.00	29.980 
21:45	85.1	85.1	84.6	41	58.7	0	1	248	0.00	29.981 
21:50	84.7	84.7	84.4	42	59.0	0	1	248	0.00	29.981 
21:55	84.3	84.3	84.1	43	59.3	0	1	248	0.00	29.981 
22:00	84.1	84.1	83.9	43	59.2	0	1	248	0.00	29.987 
22:05	83.8	83.8	83.6	43	58.9	0	1	248	0.00	29.987 
22:10	83.6	83.6	83.5	44	59.3	0	1	248	0.00	29.987 
22:15	83.4	83.4	83.3	44	59.2	0	0	---	0.00	29.990 
22:20	83.0	83.0	83.1	45	59.4	0	1	248	0.00	29.990 
22:25	82.8	82.8	82.9	45	59.3	0	1	248	0.00	29.990 
22:30	82.6	82.6	82.8	46	59.7	0	1	248	0.00	29.994 
22:35	82.4	82.4	82.6	46	59.5	0	2	248	0.00	29.994 
22:40	82.2	82.2	82.4	46	59.3	0	0	---	0.00	29.994 
22:45	82.0	82.0	82.3	47	59.8	0	1	248	0.00	29.998 
22:50	81.8	81.8	82.1	47	59.6	0	1	248	0.00	29.998 
22:55	81.6	81.6	82.1	48	60.0	0	1	248	0.00	29.998 
23:00	81.4	81.4	81.9	48	59.8	0	0	---	0.00	30.001 
23:05	81.2	81.2	81.8	49	60.2	0	0	---	0.00	30.001 
23:10	80.9	80.9	81.5	49	59.9	0	0	---	0.00	30.001 
23:15	80.7	80.7	81.4	50	60.3	0	1	248	0.00	30.005 
23:20	80.5	80.5	81.3	50	60.1	0	0	---	0.00	30.005 
23:25	80.3	80.3	81.1	50	59.9	0	0	---	0.00	30.005 
23:30	79.9	79.9	80.8	51	60.1	0	0	---	0.00	30.013 
23:35	79.8	79.8	80.7	51	60.0	0	0	---	0.00	30.013 
23:40	79.6	79.6	80.6	52	60.4	0	1	248	0.00	30.013 
23:45	79.4	79.4	80.5	52	60.2	0	1	248	0.00	30.014 
23:50	79.2	79.2	80.4	53	60.6	0	0	---	0.00	30.014 
23:55	79.2	79.2	80.4	53	60.6	0	0	---	0.00	30.014 

CoCoRaHS
IN-AL-39
A2 Web Hosting
Creative Commons License
GoDaddy
search engine by freefind advanced

loaded 2018-11-15 04:05:30 • last modified 2010-11-18 10:43:29
Privacy PolicyDisclaimer
• wx.awcolley.com is powered by PmWiki v.2002016 •
• all content (unless otherwise noted) © 2018 A W Colley